Winigan, MO (63566)

10:12 AM CDT on August 30, 2016 (GMT -0500)
Mystic Plains COA | | Change Station

Elev 984 ft 40.12 °N, 92.79 °W | Updated 23 seconds ago

Mostly Cloudy
Mostly Cloudy
72.3 °F
Feels Like 72.3 °F
N
2.0
Wind Variable Wind from ENE
Gusts 5.0 mph

Today
High -- | Low -- °F
--% Chance of Precip.
Yesterday
High -- | Low -- °F
Precip. -- in
Pressure 30.17 in
Visibility 10.0 miles
Clouds Few 7500 ft
Scattered Clouds 10000 ft
Mostly Cloudy 12000 ft
Dew Point 71 °F
Humidity 96%
Rainfall 0.33 in
Snow Depth Not available.
6:38 AM 7:45 PM
Waning Crescent, 3% visible
METAR KIRK 301455Z AUTO 05004KT 10SM FEW075 SCT100 BKN120 23/21 A3018 RMK AO2 RAE01 SLP216 P0000 60064 T02280206 51003
Pressure 30.17 in
Visibility 10.0 miles
Clouds Few 7500 ft
Scattered Clouds 10000 ft
Mostly Cloudy 12000 ft
Dew Point 71 °F
Humidity 96%
Rainfall 0.33 in
Snow Depth Not available.
6:38 AM 7:45 PM
Waning Crescent, 3% visible
METAR KIRK 301455Z AUTO 05004KT 10SM FEW075 SCT100 BKN120 23/21 A3018 RMK AO2 RAE01 SLP216 P0000 60064 T02280206 51003

10-Day Weather Forecast

Almanac

Astronomy

Aug. 30, 2016 Rise Set
Actual Time
Civil Twilight
Nautical Twilight
Astronomical Twilight
Moon
Length of Visible Light
Length of Day
Tomorrow will be .
, % of the Moon is Illuminated

Today's Extremes

State Highs State Lows

Community

WunderPhotos

Upload Photos

1,935,855 photos uploaded!

WunderBlog® & News

Nearby

Air Quality

  Air Quality AQ Index Pollutant
Not available.

Snow Depth

Station Depth Elevation

Earthquake Activity

City Distance Mag. Time & Date
Minimum magnitude displayed is 2.5.

Coastal Water Temperatures

Place Temperature

Stations

Nearby Weather Stations

Station Location Temp. Windchill Dew Point Humidity Wind Precip. Elev Updated Type
                   

Watches & Warnings

There are currently no watches in effect.